Time;durP1;ratioP1;P1;durP2;ratioP2;P2;SDS_P1;SDS_P2;PMS_P1;PMS_P2;Temp;Humidity;BMP_temperature;BMP_pressure;BME280_temperature;BME280_humidity;BME280_pressure;Samples;Min_cycle;Max_cycle;Signal;HPM_P1;HPM_P2
2023/07/07 00:00:36;;;;;;;5.95;2.83;;;;;;;17.31;90.41;100235.56;5088434;28;20479;-64
2023/07/07 00:03:01;;;;;;;7.78;2.58;;;;;;;17.34;90.89;100230.88;5088806;28;20044;-64
2023/07/07 00:05:27;;;;;;;3.85;2.55;;;;;;;17.38;90.24;100239.66;5089606;28;20043;-64
2023/07/07 00:07:53;;;;;;;5.10;2.35;;;;;;;17.40;90.45;100227.84;5089866;28;20080;-64
2023/07/07 00:10:19;;;;;;;6.07;2.65;;;;;;;17.37;90.90;100232.50;5089167;28;20028;-63
2023/07/07 00:12:45;;;;;;;6.63;3.58;;;;;;;17.30;90.64;100226.63;5091485;28;20035;-64
2023/07/07 00:15:11;;;;;;;7.15;2.60;;;;;;;17.38;91.31;100228.88;5091463;28;20023;-64
2023/07/07 00:17:37;;;;;;;5.28;2.63;;;;;;;17.35;91.34;100227.22;5089006;28;20488;-64
2023/07/07 00:20:04;;;;;;;5.18;2.63;;;;;;;17.35;91.88;100229.06;5091069;28;20024;-63
2023/07/07 00:22:31;;;;;;;4.75;2.55;;;;;;;17.33;92.13;100236.34;5088112;28;20038;-63
2023/07/07 00:24:57;;;;;;;5.50;2.80;;;;;;;17.31;92.00;100233.75;5090527;28;20024;-64
2023/07/07 00:27:22;;;;;;;4.90;2.22;;;;;;;17.27;92.54;100237.56;5091340;28;20031;-63
2023/07/07 00:29:47;;;;;;;5.93;2.60;;;;;;;17.21;92.06;100242.41;5090477;28;20024;-63
2023/07/07 00:32:13;;;;;;;4.55;2.25;;;;;;;17.16;91.70;100250.75;5091311;28;20484;-63
2023/07/07 00:34:38;;;;;;;4.15;2.28;;;;;;;17.10;91.81;100245.69;5091202;28;20037;-63
2023/07/07 00:37:04;;;;;;;5.25;2.20;;;;;;;17.06;91.66;100244.13;5090393;28;20444;-63
2023/07/07 00:39:29;;;;;;;4.93;2.10;;;;;;;17.01;91.47;100254.28;5090977;28;20036;-64
2023/07/07 00:41:55;;;;;;;7.22;2.78;;;;;;;16.96;92.06;100242.91;5086263;28;20016;-63
2023/07/07 00:44:20;;;;;;;6.47;2.22;;;;;;;16.93;92.47;100246.59;5081777;28;20024;-64
2023/07/07 00:46:45;;;;;;;7.10;2.70;;;;;;;16.90;92.54;100248.63;5088675;28;20067;-64
2023/07/07 00:49:23;;;;;;;6.45;2.72;;;;;;;16.85;92.11;100253.38;5084516;28;20023;-64
2023/07/07 00:51:56;;;;;;;5.05;3.00;;;;;;;16.80;92.64;100253.59;5087255;28;20809;-64
2023/07/07 00:54:26;;;;;;;4.82;2.38;;;;;;;16.75;93.02;100261.03;5087812;28;20392;-64
2023/07/07 00:56:54;;;;;;;4.38;2.17;;;;;;;16.69;93.51;100253.31;5088735;28;20671;-64
2023/07/07 00:59:26;;;;;;;4.75;2.33;;;;;;;16.68;93.58;100248.03;5089141;28;20048;-63
2023/07/07 01:02:00;;;;;;;4.63;2.55;;;;;;;16.69;93.63;100260.50;5087163;28;20079;-66
2023/07/07 01:04:27;;;;;;;4.57;2.33;;;;;;;16.67;94.50;100257.06;5090399;28;20104;-66
2023/07/07 01:06:58;;;;;;;5.25;2.42;;;;;;;16.68;94.68;100258.78;5090179;28;20024;-66
2023/07/07 01:09:23;;;;;;;3.85;2.40;;;;;;;16.64;94.95;100263.44;5090722;28;20024;-66
2023/07/07 01:11:49;;;;;;;4.10;2.10;;;;;;;16.61;94.83;100260.94;5090569;28;20020;-66
2023/07/07 01:14:20;;;;;;;4.00;2.40;;;;;;;16.56;96.03;100259.41;5090540;28;20428;-64
2023/07/07 01:17:04;;;;;;;5.70;3.05;;;;;;;16.52;95.35;100249.81;5090584;28;20043;-66
2023/07/07 01:20:00;;;;;;;5.53;2.95;;;;;;;16.49;96.22;100255.34;5090609;28;20084;-65
2023/07/07 01:22:54;;;;;;;6.70;2.60;;;;;;;16.47;96.12;100258.13;5088694;28;20063;-65
2023/07/07 01:25:48;;;;;;;5.68;2.60;;;;;;;16.48;96.40;100250.91;5090167;28;20031;-66
2023/07/07 01:28:31;;;;;;;5.57;3.00;;;;;;;16.48;96.09;100256.28;5090211;28;20458;-65
2023/07/07 01:31:11;;;;;;;7.57;2.55;;;;;;;16.44;96.44;100250.16;5088875;28;20107;-66
2023/07/07 01:33:37;;;;;;;5.25;2.40;;;;;;;16.44;96.06;100250.16;5090054;28;20074;-66
2023/07/07 01:36:03;;;;;;;4.75;2.72;;;;;;;16.43;96.47;100252.94;5072690;28;20070;-66
2023/07/07 01:38:36;;;;;;;6.40;2.40;;;;;;;16.32;95.07;100256.19;5070367;28;20036;-66
2023/07/07 01:41:02;;;;;;;;;;;;;;;16.23;95.01;100256.66;5089625;28;20032;-66
2023/07/07 01:43:36;;;;;;;6.03;2.08;;;;;;;16.19;94.87;100254.22;5087731;28;19912;-66
2023/07/07 01:46:29;;;;;;;5.78;3.05;;;;;;;16.16;95.45;100259.75;5069036;28;20035;-66
2023/07/07 01:49:20;;;;;;;5.20;2.72;;;;;;;16.14;95.33;100256.28;5086462;28;20023;-66
2023/07/07 01:51:56;;;;;;;5.75;2.70;;;;;;;16.11;96.12;100251.91;5087269;28;20432;-66
2023/07/07 01:54:22;;;;;;;4.55;2.70;;;;;;;16.08;95.97;100252.06;5086636;28;20028;-66
2023/07/07 01:56:48;;;;;;;5.88;2.83;;;;;;;16.06;96.76;100255.81;5087852;28;20036;-66
2023/07/07 01:59:16;;;;;;;4.32;2.35;;;;;;;16.05;96.29;100257.59;5087507;28;20024;-66
2023/07/07 02:01:42;;;;;;;7.45;4.32;;;;;;;16.05;97.03;100244.19;5087091;28;20052;-66
2023/07/07 02:04:08;;;;;;;8.55;3.50;;;;;;;16.07;96.57;100257.53;5087287;28;20468;-66
2023/07/07 02:06:33;;;;;;;4.93;2.70;;;;;;;16.06;96.25;100259.38;5086890;28;20027;-66
2023/07/07 02:08:59;;;;;;;5.43;2.65;;;;;;;16.05;96.88;100259.41;5084967;28;20028;-66
2023/07/07 02:11:24;;;;;;;5.65;3.47;;;;;;;16.01;96.16;100261.41;5084017;28;20388;-66
2023/07/07 02:13:50;;;;;;;6.22;2.78;;;;;;;16.05;96.55;100267.47;5067590;28;20372;-66
2023/07/07 02:16:15;;;;;;;4.88;2.90;;;;;;;16.06;96.63;100258.47;5068460;28;20043;-65
2023/07/07 02:18:41;;;;;;;6.03;2.72;;;;;;;16.03;95.99;100258.66;5086439;28;20024;-65
2023/07/07 02:21:07;;;;;;;6.35;2.75;;;;;;;16.00;95.23;100258.78;5086412;28;20100;-66
2023/07/07 02:23:33;;;;;;;8.02;2.97;;;;;;;15.97;96.49;100265.19;5085869;28;20123;-66
2023/07/07 02:25:58;;;;;;;5.90;4.15;;;;;;;15.99;96.69;100262.41;5087629;28;20077;-65
2023/07/07 02:28:23;;;;;;;7.43;3.03;;;;;;;15.95;96.72;100266.22;5087630;28;20024;-65
2023/07/07 02:30:49;;;;;;;6.47;3.15;;;;;;;15.90;96.40;100270.94;5086716;28;20428;-66
2023/07/07 02:33:15;;;;;;;12.90;3.33;;;;;;;15.87;96.58;100263.91;5087676;28;20035;-65
2023/07/07 02:35:41;;;;;;;7.35;3.63;;;;;;;15.82;96.44;100282.91;5086099;28;20018;-65
2023/07/07 02:38:06;;;;;;;4.70;2.58;;;;;;;15.81;97.61;100280.31;5087210;28;20020;-65
2023/07/07 02:40:31;;;;;;;6.85;2.47;;;;;;;15.81;97.19;100281.16;5085861;28;20841;-65
2023/07/07 02:42:57;;;;;;;4.72;2.72;;;;;;;15.79;97.71;100274.16;5085955;28;20036;-65
2023/07/07 02:45:22;;;;;;;7.45;3.35;;;;;;;15.79;97.89;100277.72;5083916;28;20496;-66
2023/07/07 02:47:48;;;;;;;5.45;3.10;;;;;;;15.79;97.40;100271.47;5084956;28;20574;-65
2023/07/07 02:50:13;;;;;;;7.65;2.88;;;;;;;15.75;97.54;100268.06;5085666;28;20031;-65
2023/07/07 02:52:38;;;;;;;5.97;2.90;;;;;;;15.76;98.00;100271.63;5076584;28;20039;-66
2023/07/07 02:55:04;;;;;;;5.75;3.47;;;;;;;15.66;97.17;100276.59;5082919;28;20027;-65
2023/07/07 02:57:30;;;;;;;5.25;3.05;;;;;;;15.61;97.51;100281.31;5082618;28;20063;-65
2023/07/07 02:59:55;;;;;;;5.22;3.03;;;;;;;15.59;96.99;100275.13;5086267;28;20028;-66
2023/07/07 03:02:20;;;;;;;7.00;2.95;;;;;;;15.59;96.55;100277.81;5085137;28;20059;-66
2023/07/07 03:04:49;;;;;;;4.85;3.00;;;;;;;15.55;97.34;100281.56;5086307;28;20042;-65
2023/07/07 03:07:14;;;;;;;5.40;2.75;;;;;;;15.54;97.45;100289.69;5085440;28;20448;-66
2023/07/07 03:09:40;;;;;;;6.53;3.17;;;;;;;15.55;97.41;100283.41;5083949;28;20430;-65
2023/07/07 03:12:06;;;;;;;5.97;3.03;;;;;;;15.54;97.40;100287.91;5085534;28;20577;-65
2023/07/07 03:14:31;;;;;;;5.03;2.85;;;;;;;15.52;97.09;100284.41;5085858;28;20486;-65
2023/07/07 03:16:57;;;;;;;7.75;2.72;;;;;;;15.49;97.09;100284.56;5086025;28;20032;-65
2023/07/07 03:19:23;;;;;;;15.15;4.55;;;;;;;15.48;97.85;100285.53;5085814;28;20099;-65
2023/07/07 03:21:49;;;;;;;5.85;3.05;;;;;;;15.45;97.26;100282.97;5083185;28;20115;-65
2023/07/07 03:24:15;;;;;;;5.78;3.00;;;;;;;15.44;97.14;100281.22;5072292;28;20022;-65
2023/07/07 03:26:41;;;;;;;6.72;3.05;;;;;;;15.40;97.85;100279.63;5085841;28;20035;-65
2023/07/07 03:29:06;;;;;;;4.32;2.75;;;;;;;15.43;97.65;100286.69;5086454;28;20040;-65
2023/07/07 03:31:32;;;;;;;6.57;3.28;;;;;;;15.44;98.50;100286.59;5089356;28;20032;-66
2023/07/07 03:34:02;;;;;;;5.78;2.88;;;;;;;15.42;98.71;100283.13;5090261;28;20108;-66
2023/07/07 03:36:30;;;;;;;6.55;2.80;;;;;;;15.44;98.42;100291.97;5088721;28;20586;-65
2023/07/07 03:38:56;;;;;;;6.20;3.13;;;;;;;15.43;98.08;100289.34;5087952;28;20545;-66
2023/07/07 03:41:24;;;;;;;6.25;3.22;;;;;;;15.40;98.04;100295.72;5086276;28;20035;-65
2023/07/07 03:43:50;;;;;;;6.25;3.00;;;;;;;15.42;99.04;100287.63;5082359;28;20534;-65
2023/07/07 03:46:18;;;;;;;8.05;3.17;;;;;;;15.39;98.54;100285.94;5086449;28;20039;-65
2023/07/07 03:48:44;;;;;;;7.00;3.15;;;;;;;15.38;98.79;100286.88;5087127;28;20117;-65
2023/07/07 03:51:10;;;;;;;5.13;2.50;;;;;;;15.38;98.46;100294.91;5088554;28;20038;-65
2023/07/07 03:53:36;;;;;;;7.95;3.15;;;;;;;15.37;97.75;100295.84;5087918;28;20024;-65
2023/07/07 03:56:01;;;;;;;7.57;4.28;;;;;;;15.39;99.04;100293.09;5089557;28;20124;-66
2023/07/07 03:58:27;;;;;;;7.03;3.30;;;;;;;15.38;97.94;100286.88;5089011;28;20040;-65
2023/07/07 04:00:53;;;;;;;5.55;2.58;;;;;;;15.34;98.02;100290.63;5088716;28;20024;-65
2023/07/07 04:03:20;;;;;;;6.32;3.25;;;;;;;15.34;97.84;100298.66;5089899;28;20422;-65
2023/07/07 04:05:49;;;;;;;6.35;3.22;;;;;;;15.33;98.46;100299.63;5089685;28;20090;-66
2023/07/07 04:08:22;;;;;;;6.93;3.05;;;;;;;15.36;98.38;100294.09;5088780;28;20494;-66
2023/07/07 04:11:09;;;;;;;6.47;3.08;;;;;;;15.41;98.45;100307.31;5089913;28;20487;-65
2023/07/07 04:13:38;;;;;;;8.50;3.17;;;;;;;15.42;97.92;100291.16;5087288;28;20069;-65
2023/07/07 04:16:09;;;;;;;4.95;2.70;;;;;;;15.47;98.08;100291.81;5068758;28;20105;-65
2023/07/07 04:18:36;;;;;;;8.77;3.50;;;;;;;15.50;98.21;100296.16;5071250;28;20779;-65
2023/07/07 04:21:07;;;;;;;7.53;3.17;;;;;;;15.50;98.76;100299.69;5083689;28;20032;-65
2023/07/07 04:23:38;;;;;;;5.38;2.90;;;;;;;15.51;98.20;100298.78;5088333;28;20024;-65
2023/07/07 04:26:04;;;;;;;5.75;2.88;;;;;;;15.55;97.04;100289.63;5087340;28;20515;-66
2023/07/07 04:28:30;;;;;;;7.07;3.28;;;;;;;15.53;97.83;100296.88;5087889;28;20038;-65
2023/07/07 04:30:57;;;;;;;7.15;3.30;;;;;;;15.56;97.55;100299.41;5088379;28;20032;-65
2023/07/07 04:33:25;;;;;;;8.82;3.55;;;;;;;15.57;97.88;100298.47;5086378;28;20097;-66
2023/07/07 04:35:55;;;;;;;7.28;3.72;;;;;;;15.56;97.02;100302.09;5087628;28;20083;-65
2023/07/07 04:38:30;;;;;;;6.32;3.25;;;;;;;15.57;97.24;100293.09;5087155;28;20456;-65
2023/07/07 04:41:12;;;;;;;6.90;2.90;;;;;;;15.61;96.76;100305.44;5085788;28;20012;-65
2023/07/07 04:43:58;;;;;;;7.00;3.50;;;;;;;15.71;96.90;100309.41;5086962;28;20036;-65
2023/07/07 04:46:38;;;;;;;6.32;3.53;;;;;;;15.81;96.81;100307.13;5087451;28;20028;-66
2023/07/07 04:49:08;;;;;;;7.90;3.53;;;;;;;15.90;96.56;100308.50;5086649;28;20032;-65
2023/07/07 04:51:36;;;;;;;5.75;3.38;;;;;;;16.02;96.88;100315.91;5088572;28;20147;-65
2023/07/07 04:54:02;;;;;;;9.50;3.17;;;;;;;16.15;95.55;100311.69;5087440;28;20027;-65
2023/07/07 04:56:28;;;;;;;6.28;3.63;;;;;;;16.29;95.32;100317.22;5070892;28;20033;-65
2023/07/07 04:58:53;;;;;;;8.55;3.65;;;;;;;16.35;95.69;100303.47;5074426;28;20111;-65
2023/07/07 05:01:22;;;;;;;8.07;3.25;;;;;;;16.51;94.67;100318.75;5087713;28;20035;-65
2023/07/07 05:03:52;;;;;;;7.75;3.58;;;;;;;16.64;94.46;100316.28;5088600;28;20028;-65
2023/07/07 05:06:19;;;;;;;6.40;3.38;;;;;;;16.74;93.79;100313.03;5087848;28;20031;-66
2023/07/07 05:08:44;;;;;;;7.80;3.58;;;;;;;16.88;93.62;100309.63;5088208;28;20035;-66
2023/07/07 05:11:11;;;;;;;6.60;3.80;;;;;;;17.02;93.70;100320.50;5088579;28;20040;-66
2023/07/07 05:13:37;;;;;;;6.97;3.17;;;;;;;17.14;93.28;100325.22;5087667;28;20476;-65
2023/07/07 05:16:07;;;;;;;6.50;3.45;;;;;;;17.26;92.75;100324.56;5088647;28;20026;-65
2023/07/07 05:18:32;;;;;;;6.43;3.70;;;;;;;17.53;92.35;100317.66;5086912;28;20429;-65
2023/07/07 05:20:58;;;;;;;7.18;3.80;;;;;;;17.88;91.74;100316.53;5087202;28;20043;-65
2023/07/07 05:23:24;;;;;;;5.88;3.58;;;;;;;18.19;90.39;100321.00;5087466;28;20032;-66
2023/07/07 05:25:50;;;;;;;8.95;4.40;;;;;;;18.26;87.31;100317.88;5086519;28;20081;-65
2023/07/07 05:28:15;;;;;;;5.93;3.45;;;;;;;18.34;86.48;100326.34;5085528;28;20031;-65
2023/07/07 05:30:41;;;;;;;12.50;4.28;;;;;;;18.40;86.76;100319.78;5086773;28;20090;-65
2023/07/07 05:33:08;;;;;;;7.00;3.70;;;;;;;18.47;86.01;100325.66;5084991;28;20123;-66
2023/07/07 05:35:33;;;;;;;8.57;3.97;;;;;;;18.57;85.56;100316.03;5085798;28;20016;-65
2023/07/07 05:38:00;;;;;;;8.15;3.33;;;;;;;18.64;85.21;100322.81;5085414;28;20035;-66
2023/07/07 05:40:29;;;;;;;8.38;4.40;;;;;;;18.75;85.62;100325.69;5081434;28;20046;-65
2023/07/07 05:42:55;;;;;;;6.80;3.72;;;;;;;18.88;84.56;100326.72;5085127;28;20032;-66
2023/07/07 05:45:23;;;;;;;6.15;3.30;;;;;;;19.02;84.39;100332.09;5086172;28;20030;-65
2023/07/07 05:47:48;;;;;;;6.70;3.97;;;;;;;19.07;82.36;100330.00;5085784;28;20070;-66
2023/07/07 05:50:13;;;;;;;6.88;3.75;;;;;;;19.15;81.15;100330.38;5086615;28;20068;-65
2023/07/07 05:52:39;;;;;;;5.68;3.30;;;;;;;19.30;80.42;100340.25;5085884;28;20043;-66
2023/07/07 05:55:05;;;;;;;10.25;3.60;;;;;;;19.35;79.07;100339.00;5087587;28;20020;-65
2023/07/07 05:57:31;;;;;;;5.93;3.55;;;;;;;19.43;78.66;100330.41;5087472;28;20031;-66
2023/07/07 05:59:56;;;;;;;7.43;3.45;;;;;;;19.57;77.88;100343.91;5087953;28;20032;-65
2023/07/07 06:02:22;;;;;;;5.70;3.20;;;;;;;19.65;77.64;100347.81;5086032;28;20056;-65
2023/07/07 06:04:47;;;;;;;5.57;3.67;;;;;;;19.79;76.32;100343.34;5086895;28;20093;-66
2023/07/07 06:07:13;;;;;;;6.63;3.42;;;;;;;19.96;75.16;100351.22;5086218;28;20020;-67
2023/07/07 06:09:38;;;;;;;6.22;3.70;;;;;;;20.13;76.17;100349.13;5064761;28;20038;-66
2023/07/07 06:12:05;;;;;;;5.32;3.10;;;;;;;20.29;75.50;100354.44;5068335;28;20108;-66
2023/07/07 06:14:30;;;;;;;7.13;3.67;;;;;;;20.34;73.53;100352.28;5070132;28;20016;-66
2023/07/07 06:16:55;;;;;;;6.18;3.10;;;;;;;20.48;72.88;100350.38;5071679;28;20031;-66
2023/07/07 06:19:21;;;;;;;7.03;2.75;;;;;;;20.61;72.61;100355.81;5067119;28;20097;-66
2023/07/07 06:21:46;;;;;;;5.90;3.00;;;;;;;20.68;71.47;100358.00;5080625;28;20122;-67
2023/07/07 06:24:12;;;;;;;6.50;2.70;;;;;;;20.89;71.46;100358.34;5086530;28;20024;-67
2023/07/07 06:26:37;;;;;;;6.13;3.28;;;;;;;21.11;69.08;100365.88;5085189;28;20479;-66
2023/07/07 06:29:02;;;;;;;5.38;2.70;;;;;;;21.24;68.97;100362.19;5084917;28;20051;-66
2023/07/07 06:31:28;;;;;;;6.90;3.20;;;;;;;21.26;68.19;100368.38;5083657;28;20058;-66
2023/07/07 06:33:54;;;;;;;8.18;2.60;;;;;;;21.46;67.54;100366.94;5085120;28;20024;-66
2023/07/07 06:36:19;;;;;;;6.13;3.00;;;;;;;21.65;67.00;100370.06;5085335;28;20028;-67
2023/07/07 06:38:45;;;;;;;4.85;2.75;;;;;;;21.83;66.93;100361.50;5088250;28;20036;-66
2023/07/07 06:41:12;;;;;;;6.35;2.72;;;;;;;21.88;65.84;100375.56;5087907;28;20016;-66
2023/07/07 06:43:37;;;;;;;5.68;2.70;;;;;;;22.06;65.35;100362.50;5085420;28;20794;-66
2023/07/07 06:46:03;;;;;;;4.53;2.92;;;;;;;22.29;66.17;100369.78;5079242;28;20033;-66
2023/07/07 06:48:28;;;;;;;4.47;2.38;;;;;;;22.52;63.32;100377.03;5083234;28;20054;-66
2023/07/07 06:50:53;;;;;;;4.63;2.72;;;;;;;22.71;62.12;100372.00;5089066;28;20032;-66
2023/07/07 06:53:19;;;;;;;5.85;2.38;;;;;;;22.85;60.29;100377.22;5083243;28;20047;-66
2023/07/07 06:55:44;;;;;;;4.25;2.38;;;;;;;22.83;59.38;100370.19;5084182;28;20020;-66
2023/07/07 06:58:12;;;;;;;4.75;2.58;;;;;;;23.00;58.39;100378.75;5068342;28;20025;-66
2023/07/07 07:00:38;;;;;;;5.85;2.05;;;;;;;23.11;58.32;100370.63;5088304;28;20050;-66
2023/07/07 07:03:03;;;;;;;4.93;2.40;;;;;;;23.22;54.86;100369.78;5089899;28;20071;-67
2023/07/07 07:05:29;;;;;;;4.80;2.50;;;;;;;23.29;56.38;100371.91;5090812;28;20032;-66
2023/07/07 07:07:54;;;;;;;9.63;4.05;;;;;;;23.35;56.18;100370.56;5094918;28;20479;-66
2023/07/07 07:10:20;;;;;;;4.90;2.08;;;;;;;23.49;56.03;100369.47;5094598;28;20031;-66
2023/07/07 07:12:45;;;;;;;4.25;2.50;;;;;;;23.73;56.05;100370.22;5096367;28;20391;-66
2023/07/07 07:15:11;;;;;;;6.45;2.10;;;;;;;23.91;54.24;100361.44;5094434;28;20487;-67
2023/07/07 07:17:36;;;;;;;6.45;2.40;;;;;;;24.13;54.78;100360.56;5094959;28;20039;-65
2023/07/07 07:20:04;;;;;;;5.47;2.30;;;;;;;24.30;53.84;100373.63;5090783;28;20028;-65
2023/07/07 07:22:29;;;;;;;6.47;2.42;;;;;;;24.17;53.12;100372.91;5081552;28;20036;-65
2023/07/07 07:24:55;;;;;;;3.97;2.30;;;;;;;24.22;51.65;100370.66;5091254;28;20031;-65
2023/07/07 07:27:20;;;;;;;6.20;2.53;;;;;;;24.33;51.23;100373.38;5092901;28;20115;-66
2023/07/07 07:29:45;;;;;;;6.75;2.42;;;;;;;24.43;52.23;100364.28;5092944;28;20020;-66
2023/07/07 07:32:12;;;;;;;4.35;2.40;;;;;;;24.81;51.73;100363.78;5093182;28;20020;-66
2023/07/07 07:34:37;;;;;;;5.20;2.30;;;;;;;25.23;51.29;100365.53;5095803;28;20117;-66
2023/07/07 07:37:04;;;;;;;4.10;2.08;;;;;;;25.60;50.22;100364.03;5096857;28;20020;-67
2023/07/07 07:39:29;;;;;;;4.30;2.20;;;;;;;25.94;46.93;100353.69;5097310;28;20036;-66
2023/07/07 07:41:55;;;;;;;4.65;2.17;;;;;;;26.04;47.33;100351.91;5097494;28;20038;-67
2023/07/07 07:44:23;;;;;;;4.93;2.63;;;;;;;26.30;47.41;100352.22;5098830;28;20038;-66
2023/07/07 07:46:49;;;;;;;5.43;2.08;;;;;;;26.59;46.78;100353.13;5094753;28;20032;-67
2023/07/07 07:49:15;;;;;;;4.28;2.15;;;;;;;27.01;46.77;100354.56;5093031;28;20036;-66
2023/07/07 07:51:42;;;;;;;6.55;2.30;;;;;;;27.18;44.70;100348.38;5101184;28;20043;-66
2023/07/07 07:54:10;;;;;;;4.10;2.03;;;;;;;27.46;44.93;100354.78;5102866;28;20032;-67
2023/07/07 07:56:36;;;;;;;4.45;2.22;;;;;;;27.68;43.69;100359.88;5102651;28;20078;-66
2023/07/07 07:59:02;;;;;;;4.18;2.08;;;;;;;28.18;43.83;100344.81;5099940;28;20024;-66
2023/07/07 08:01:28;;;;;;;5.50;2.38;;;;;;;28.39;42.44;100350.88;5097642;28;20035;-67
2023/07/07 08:03:54;;;;;;;4.78;2.35;;;;;;;28.19;40.93;100352.88;5097858;28;20031;-66
2023/07/07 08:06:19;;;;;;;4.47;1.92;;;;;;;28.39;43.55;100351.75;5096607;28;20403;-65
2023/07/07 08:08:45;;;;;;;3.70;1.98;;;;;;;28.72;43.30;100354.81;5078156;28;20016;-66
2023/07/07 08:11:17;;;;;;;4.43;2.17;;;;;;;28.92;41.10;100342.69;5085954;28;20024;-65
2023/07/07 08:13:43;;;;;;;5.60;2.13;;;;;;;29.33;41.16;100348.34;5089577;28;20444;-66
2023/07/07 08:16:10;;;;;;;4.38;1.88;;;;;;;29.61;40.46;100344.41;5090596;28;20032;-65
2023/07/07 08:18:37;;;;;;;4.40;1.90;;;;;;;29.93;40.73;100346.47;5089827;28;20088;-66
2023/07/07 08:21:03;;;;;;;5.85;1.95;;;;;;;29.95;39.53;100338.91;5092067;28;20032;-67
2023/07/07 08:23:28;;;;;;;3.22;1.77;;;;;;;30.06;40.84;100335.91;5092473;28;20133;-68
2023/07/07 08:25:54;;;;;;;5.30;2.25;;;;;;;30.27;40.54;100341.81;5089440;28;20467;-66
2023/07/07 08:28:19;;;;;;;8.43;2.03;;;;;;;30.34;39.21;100340.13;5073112;28;20497;-66
2023/07/07 08:30:45;;;;;;;4.93;1.77;;;;;;;30.61;39.40;100342.56;5075623;28;20067;-67
2023/07/07 08:33:10;;;;;;;4.15;1.92;;;;;;;30.69;38.27;100345.31;5091747;28;20111;-68
2023/07/07 08:35:36;;;;;;;5.32;2.00;;;;;;;30.78;38.94;100349.84;5091355;28;20036;-66
2023/07/07 08:38:02;;;;;;;4.55;2.25;;;;;;;30.96;38.83;100346.03;5087872;28;20069;-67
2023/07/07 08:40:35;;;;;;;5.88;2.30;;;;;;;31.15;38.69;100341.09;5089546;28;20149;-67
2023/07/07 08:43:00;;;;;;;;;;;;;;;31.33;38.23;100347.28;5089102;28;20027;-66
2023/07/07 08:45:27;;;;;;;5.40;2.10;;;;;;;31.44;37.60;100340.53;5089249;28;19916;-68
2023/07/07 08:48:39;;;;;;;5.75;2.38;;;;;;;31.69;37.77;100348.56;5089233;28;20023;-67
2023/07/07 08:51:12;;;;;;;5.85;1.95;;;;;;;31.74;36.57;100342.53;5083105;28;20035;-67
2023/07/07 08:53:48;;;;;;;4.63;1.88;;;;;;;31.90;37.39;100348.00;5088738;28;20059;-67
2023/07/07 08:56:28;;;;;;;3.63;1.80;;;;;;;32.28;36.35;100346.25;5088906;28;20554;-67
2023/07/07 08:59:18;;;;;;;5.55;1.90;;;;;;;32.32;36.23;100337.47;5082943;28;20457;-66
2023/07/07 09:02:26;;;;;;;4.85;1.88;;;;;;;32.59;35.69;100336.97;5088497;28;20066;-67
2023/07/07 09:05:12;;;;;;;4.57;2.10;;;;;;;32.64;35.62;100330.91;5010552;28;20493;-67
2023/07/07 09:08:11;;;;;;;4.30;2.17;;;;;;;32.76;36.86;100335.81;5047692;28;20037;-67
2023/07/07 09:11:08;;;;;;;3.35;1.77;;;;;;;32.83;36.15;100342.31;5062187;28;20044;-68
2023/07/07 09:13:36;;;;;;;5.55;2.20;;;;;;;32.94;35.14;100338.28;5059758;28;20752;-67
2023/07/07 09:16:02;;;;;;;5.18;2.13;;;;;;;32.73;36.26;100330.69;5045890;28;20020;-66
2023/07/07 09:18:35;;;;;;;4.22;1.85;;;;;;;32.98;36.18;100334.97;5053957;28;20043;-66
2023/07/07 09:21:03;;;;;;;4.85;1.83;;;;;;;33.07;37.09;100339.38;5057993;28;20467;-67
2023/07/07 09:23:37;;;;;;;5.57;1.80;;;;;;;33.19;36.36;100328.75;5047299;28;20033;-67
2023/07/07 09:26:09;;;;;;;4.55;2.00;;;;;;;33.50;35.76;100323.97;5051316;28;20021;-67
2023/07/07 09:28:42;;;;;;;5.15;2.22;;;;;;;33.62;36.24;100332.63;5062369;28;20031;-67
2023/07/07 09:31:42;;;;;;;3.50;1.77;;;;;;;33.69;35.54;100328.09;5064375;28;20035;-67
2023/07/07 09:34:10;;;;;;;6.25;2.00;;;;;;;33.57;35.12;100318.56;5068035;28;20110;-67
2023/07/07 09:37:06;;;;;;;4.57;2.15;;;;;;;33.50;36.28;100318.47;5066455;28;20476;-67
2023/07/07 09:40:07;;;;;;;8.00;2.10;;;;;;;33.66;35.38;100314.66;5058492;28;20028;-66
2023/07/07 09:42:39;;;;;;;5.40;2.05;;;;;;;33.90;35.63;100308.84;5066405;28;20109;-68
2023/07/07 09:45:35;;;;;;;4.80;1.95;;;;;;;33.99;35.86;100311.31;5056452;28;20124;-68
2023/07/07 09:48:19;;;;;;;8.85;3.70;;;;;;;34.18;34.56;100304.34;5050005;28;20275;-69
2023/07/07 09:51:11;;;;;;;5.63;2.10;;;;;;;34.43;35.31;100305.75;5070324;28;20116;-69
2023/07/07 09:53:40;;;;;;;5.05;2.00;;;;;;;34.56;35.05;100306.72;5050233;28;20074;-69
2023/07/07 09:56:12;;;;;;;5.20;2.22;;;;;;;34.41;34.12;100305.06;5055844;28;20511;-68
2023/07/07 09:58:39;;;;;;;4.75;2.15;;;;;;;34.63;33.96;100301.25;5047726;28;20123;-69
2023/07/07 10:01:05;;;;;;;5.22;2.40;;;;;;;34.84;33.34;100309.56;5057295;28;20058;-68
2023/07/07 10:03:48;;;;;;;4.45;1.95;;;;;;;35.00;34.35;100303.78;5083581;28;20882;-69
2023/07/07 10:06:31;;;;;;;4.22;1.80;;;;;;;35.17;33.79;100294.16;5079542;28;20028;-69
2023/07/07 10:08:59;;;;;;;5.47;2.20;;;;;;;35.13;33.96;100287.28;5066837;28;20052;-68
2023/07/07 10:11:35;;;;;;;7.03;2.10;;;;;;;35.19;33.99;100292.00;5074576;28;20028;-67
2023/07/07 10:14:03;;;;;;;6.72;2.50;;;;;;;35.21;34.32;100294.56;5065714;28;20076;-69
2023/07/07 10:16:45;;;;;;;4.50;2.15;;;;;;;35.38;33.85;100291.34;5069676;28;20020;-68
2023/07/07 10:19:13;;;;;;;3.80;2.03;;;;;;;35.11;33.60;100288.56;5070518;28;20055;-69
2023/07/07 10:21:38;;;;;;;6.40;2.47;;;;;;;35.37;34.23;100288.75;5066172;28;20024;-69
2023/07/07 10:24:05;;;;;;;5.63;2.17;;;;;;;35.69;33.82;100288.97;5080157;28;20029;-68
2023/07/07 10:26:30;;;;;;;6.68;2.22;;;;;;;35.74;33.08;100285.59;5075839;28;20056;-69
2023/07/07 10:29:00;;;;;;;5.00;1.95;;;;;;;35.90;33.24;100295.50;5067645;28;20527;-70
2023/07/07 10:31:27;;;;;;;6.80;2.45;;;;;;;35.80;33.08;100290.28;5070613;28;20037;-68
2023/07/07 10:33:57;;;;;;;5.10;2.20;;;;;;;35.83;32.21;100289.03;5066961;28;20034;-70
2023/07/07 10:36:26;;;;;;;5.57;2.45;;;;;;;36.11;32.20;100278.75;5068743;28;20028;-68
2023/07/07 10:38:55;;;;;;;6.50;2.10;;;;;;;36.24;32.57;100289.88;5068891;28;20028;-69
2023/07/07 10:41:21;;;;;;;4.60;2.20;;;;;;;36.14;34.27;100281.09;5066757;28;20029;-69
2023/07/07 10:43:46;;;;;;;5.55;2.40;;;;;;;36.14;32.96;100283.88;5079958;28;20028;-69
2023/07/07 10:46:12;;;;;;;6.40;2.35;;;;;;;36.36;32.89;100279.94;5076566;28;20734;-69
2023/07/07 10:48:43;;;;;;;5.88;2.55;;;;;;;36.36;31.78;100274.41;5067403;28;20021;-69
2023/07/07 10:51:45;;;;;;;3.75;1.80;;;;;;;36.63;31.95;100270.59;5074864;28;20089;-69
2023/07/07 10:54:31;;;;;;;7.20;2.65;;;;;;;36.89;31.78;100276.19;5070857;28;20021;-69
2023/07/07 10:57:31;;;;;;;4.90;2.00;;;;;;;37.20;31.56;100272.78;5085733;28;20119;-68
2023/07/07 11:00:18;;;;;;;5.20;2.20;;;;;;;37.46;29.78;100273.63;5082777;28;20062;-68
2023/07/07 11:03:00;;;;;;;4.28;2.33;;;;;;;37.64;30.34;100259.06;5082612;28;20070;-67
2023/07/07 11:05:36;;;;;;;5.97;2.20;;;;;;;37.43;30.05;100268.47;5067782;28;20048;-67
2023/07/07 11:08:28;;;;;;;4.65;2.33;;;;;;;37.47;30.93;100269.78;5070294;28;20043;-68
2023/07/07 11:11:14;;;;;;;5.25;2.50;;;;;;;37.56;29.57;100273.19;5066968;28;20031;-68
2023/07/07 11:14:20;;;;;;;5.20;2.65;;;;;;;38.05;30.28;100259.56;5065371;28;20044;-68
2023/07/07 11:17:10;;;;;;;5.00;2.85;;;;;;;38.11;29.26;100261.44;4980919;28;20446;-68
2023/07/07 11:20:14;;;;;;;5.20;2.60;;;;;;;38.09;29.34;100253.31;5078103;28;20039;-69
2023/07/07 11:23:03;;;;;;;7.53;2.78;;;;;;;38.37;29.34;100260.50;5076495;28;20032;-67
2023/07/07 11:25:34;;;;;;;8.23;2.60;;;;;;;38.30;28.53;100259.66;5085180;28;20031;-67
2023/07/07 11:28:05;;;;;;;4.85;2.13;;;;;;;38.53;27.74;100254.38;5082087;28;20039;-68
2023/07/07 11:30:36;;;;;;;5.63;2.40;;;;;;;38.82;27.36;100249.06;5069699;28;20046;-67
2023/07/07 11:33:20;;;;;;;5.07;2.53;;;;;;;38.65;26.12;100252.63;5071347;28;20886;-67
2023/07/07 11:35:51;;;;;;;6.43;2.70;;;;;;;38.89;26.05;100243.44;5076256;28;20028;-67
2023/07/07 11:38:44;;;;;;;7.32;2.78;;;;;;;38.59;27.65;100243.25;5073995;28;20063;-68
2023/07/07 11:41:23;;;;;;;6.80;2.42;;;;;;;38.68;26.98;100235.47;5070742;28;20407;-67